Time;durP1;ratioP1;P1;durP2;ratioP2;P2;SDS_P1;SDS_P2;PMS_P1;PMS_P2;Temp;Humidity;BMP_temperature;BMP_pressure;BME280_temperature;BME280_humidity;BME280_pressure;Samples;Min_cycle;Max_cycle;Signal;HPM_P1;HPM_P2
2021/12/24 00:00:15;;;;;;;29.00;16.03;;;1.30;61.20;;;1.02;48.93;95228.53;5003324;28;20461;-59
2021/12/24 00:02:42;;;;;;;28.50;15.70;;;1.30;61.30;;;1.02;49.42;95212.13;5001141;28;20478;-56
2021/12/24 00:05:10;;;;;;;30.17;15.77;;;1.40;61.60;;;1.07;48.96;95194.66;4995691;28;20446;-61
2021/12/24 00:07:37;;;;;;;31.27;16.73;;;1.40;61.40;;;1.07;49.83;95192.06;5001718;28;20482;-54
2021/12/24 00:10:09;;;;;;;30.10;15.53;;;1.40;61.30;;;1.04;49.82;95189.63;4992209;28;20490;-61
2021/12/24 00:12:40;;;;;;;28.40;15.60;;;1.40;61.20;;;1.03;49.51;95188.75;5002485;28;20478;-61
2021/12/24 00:15:22;;;;;;;34.23;16.80;;;1.40;61.30;;;1.06;49.57;95198.97;4999098;28;20578;-54
2021/12/24 00:17:51;;;;;;;40.57;17.83;;;1.40;61.40;;;1.11;49.37;95187.56;5000627;28;20553;-60
2021/12/24 00:20:48;;;;;;;29.80;16.53;;;1.40;61.30;;;1.11;49.49;95190.13;5000087;28;20466;-60
2021/12/24 00:36:57;;;;;;;44.00;19.27;;;1.60;61.20;;;1.29;49.85;95199.59;5003689;28;20595;-60
2021/12/24 00:39:24;;;;;;;33.37;18.70;;;1.60;61.30;;;1.30;49.74;95200.44;4998857;28;20452;-59
2021/12/24 00:41:53;;;;;;;36.37;16.83;;;1.60;61.10;;;1.29;49.41;95194.41;5001754;28;20796;-61
2021/12/24 00:44:20;;;;;;;40.87;18.43;;;1.60;61.20;;;1.30;49.13;95197.84;5003013;28;20458;-60
2021/12/24 00:46:48;;;;;;;28.23;14.63;;;1.60;61.20;;;1.31;49.36;95187.41;4998359;28;20497;-56
2021/12/24 00:49:15;;;;;;;33.63;14.90;;;1.60;61.20;;;1.31;49.04;95186.56;5001053;28;20507;-55
2021/12/24 00:52:06;;;;;;;23.80;13.80;;;1.60;60.90;;;1.29;49.55;95183.22;5005296;28;20478;-59
2021/12/24 00:57:19;;;;;;;23.80;14.10;;;1.60;60.70;;;1.28;48.94;95172.00;4995451;28;20472;-59
2021/12/24 00:59:46;;;;;;;27.13;13.40;;;1.60;60.90;;;1.30;49.36;95169.34;4993244;28;20524;-54
2021/12/24 01:02:13;;;;;;;26.43;14.37;;;1.60;61.10;;;1.32;48.92;95162.34;4999838;28;21039;-56
2021/12/24 01:04:41;;;;;;;23.93;12.80;;;1.60;61.10;;;1.33;49.48;95169.19;5001173;28;20450;-54
2021/12/24 01:07:09;;;;;;;25.13;13.60;;;1.60;60.60;;;1.33;48.93;95174.38;5001479;28;21155;-54
2021/12/24 01:09:36;;;;;;;42.63;20.87;;;1.60;60.70;;;1.34;48.90;95176.88;5001019;28;20489;-56
2021/12/24 01:12:05;;;;;;;64.10;26.43;;;1.60;61.10;;;1.35;50.36;95160.44;5004096;28;20552;-61
2021/12/24 01:14:33;;;;;;;61.50;28.50;;;1.60;62.10;;;1.34;50.41;95166.53;5008416;28;20454;-56
2021/12/24 01:17:10;;;;;;;58.37;27.20;;;1.60;62.50;;;1.34;49.86;95165.69;5002852;28;21028;-57
2021/12/24 01:19:41;;;;;;;63.57;27.93;;;1.70;62.70;;;1.33;49.83;95151.88;4998038;28;20804;-56
2021/12/24 01:22:46;;;;;;;51.03;26.23;;;1.60;62.40;;;1.36;50.21;95148.31;5002109;28;20473;-55
2021/12/24 01:25:12;;;;;;;55.87;25.17;;;1.60;62.80;;;1.38;49.89;95149.91;5005442;28;20445;-61
2021/12/24 01:27:59;;;;;;;57.83;27.73;;;1.70;63.30;;;1.40;50.43;95152.44;5004296;28;20469;-60
2021/12/24 01:38:57;;;;;;;54.63;26.10;;;1.70;62.90;;;1.39;49.77;95130.00;4999532;28;20993;-60
2021/12/24 01:44:05;;;;;;;61.60;26.40;;;1.70;62.80;;;1.38;50.22;95126.59;5000024;28;20608;-59
2021/12/24 01:46:34;;;;;;;60.07;26.40;;;1.70;62.90;;;1.37;49.84;95135.28;4996545;28;20914;-60
2021/12/24 01:49:01;;;;;;;61.83;25.83;;;1.70;63.00;;;1.37;50.27;95140.44;5002848;28;20494;-55
2021/12/24 01:51:29;;;;;;;46.37;24.63;;;1.70;63.10;;;1.37;50.41;95137.84;5005425;28;20553;-55
2021/12/24 01:53:57;;;;;;;58.67;27.50;;;1.60;63.00;;;1.35;50.62;95131.94;5002946;28;20450;-56
2021/12/24 01:56:24;;;;;;;63.97;26.10;;;1.70;63.20;;;1.35;50.67;95120.69;5005949;28;20496;-55
2021/12/24 01:58:51;;;;;;;57.90;27.07;;;1.70;63.50;;;1.35;51.11;95123.28;5003661;28;20478;-55
2021/12/24 02:01:18;;;;;;;61.90;25.27;;;1.70;63.20;;;1.31;50.58;95117.44;5001001;28;20490;-56
2021/12/24 02:03:47;;;;;;;45.77;23.57;;;1.70;63.10;;;1.25;51.19;95112.56;4998409;28;20454;-59
2021/12/24 02:06:14;;;;;;;55.60;25.83;;;1.60;63.00;;;1.20;50.84;95106.78;5002910;28;21030;-60
2021/12/24 02:08:42;;;;;;;65.30;26.80;;;1.60;63.20;;;1.16;50.09;95107.84;4998844;28;20497;-61
2021/12/24 02:11:09;;;;;;;47.27;24.43;;;1.50;63.30;;;1.12;51.48;95098.56;4999016;28;20536;-59
2021/12/24 02:13:36;;;;;;;53.63;26.30;;;1.40;63.60;;;1.10;50.92;95096.06;4999920;28;20482;-62
2021/12/24 02:16:14;;;;;;;59.87;29.03;;;1.40;63.80;;;1.10;51.57;95090.03;5005818;28;20487;-56
2021/12/24 02:29:38;;;;;;;62.77;29.10;;;1.30;64.00;;;0.96;51.47;95073.44;4998476;28;20469;-55
2021/12/24 02:32:06;;;;;;;63.13;28.23;;;1.30;64.00;;;0.93;50.53;95065.81;5001093;28;20474;-62
2021/12/24 02:34:33;;;;;;;61.97;29.47;;;1.30;64.00;;;0.91;51.17;95054.69;4996407;28;20985;-55
2021/12/24 02:37:02;;;;;;;60.17;27.40;;;1.30;64.40;;;0.88;51.94;95054.84;5006756;28;21006;-59
2021/12/24 02:39:30;;;;;;;60.07;29.37;;;1.20;64.40;;;0.81;51.55;95054.31;5001545;28;20461;-55
2021/12/24 02:41:58;;;;;;;58.10;28.30;;;1.20;64.70;;;0.78;51.39;95056.22;5002737;28;21009;-61
2021/12/24 02:44:25;;;;;;;63.17;30.00;;;1.10;64.90;;;0.79;51.37;95057.88;5002326;28;20534;-54
2021/12/24 02:47:11;;;;;;;66.90;31.47;;;1.10;64.90;;;0.76;51.30;95045.09;5001645;28;20882;-56
2021/12/24 02:55:23;;;;;;;72.97;31.13;;;1.00;66.10;;;0.70;51.86;95031.56;4960237;28;20498;-56
2021/12/24 02:57:51;;;;;;;69.53;32.37;;;1.00;66.00;;;0.68;52.69;95030.81;4979989;28;20475;-60
2021/12/24 03:00:25;;;;;;;68.80;32.07;;;1.00;66.50;;;0.67;51.76;95021.34;4998335;28;20466;-60
2021/12/24 03:02:53;;;;;;;75.20;32.30;;;1.00;66.10;;;0.65;52.21;95037.88;5001378;28;20564;-60
2021/12/24 03:05:21;;;;;;;73.53;32.03;;;1.00;66.30;;;0.62;52.76;95038.00;5003187;28;20445;-56
2021/12/24 03:07:50;;;;;;;69.53;31.30;;;0.90;67.10;;;0.58;52.23;95028.75;5004598;28;20498;-61
2021/12/24 03:10:19;;;;;;;83.07;33.43;;;0.90;66.60;;;0.53;53.08;95027.22;5000315;28;21014;-55
2021/12/24 03:12:47;;;;;;;65.80;29.10;;;0.80;66.80;;;0.54;52.75;95022.84;5002898;28;20486;-63
2021/12/24 03:15:16;;;;;;;68.17;30.33;;;0.80;67.20;;;0.51;52.58;95015.25;4997846;28;20466;-59
2021/12/24 03:17:48;;;;;;;57.93;27.20;;;0.80;66.40;;;0.45;52.76;95021.59;4993516;28;20537;-56
2021/12/24 03:20:15;;;;;;;77.40;32.90;;;0.80;66.70;;;0.43;52.88;95017.38;4993173;28;20811;-56
2021/12/24 03:22:49;;;;;;;66.07;30.17;;;0.80;67.00;;;0.40;52.72;95027.88;4998838;28;20482;-62
2021/12/24 03:25:18;;;;;;;60.73;29.50;;;0.70;67.60;;;0.37;52.78;95023.69;4995909;28;20874;-56
2021/12/24 03:27:45;;;;;;;60.80;28.60;;;0.70;67.10;;;0.37;52.66;95015.09;4999798;28;20465;-59
2021/12/24 03:30:13;;;;;;;73.43;30.00;;;0.70;67.60;;;0.39;53.31;95015.84;5001134;28;20504;-54
2021/12/24 03:32:40;;;;;;;61.10;28.17;;;0.70;67.60;;;0.39;52.73;95013.25;4998686;28;20469;-61
2021/12/24 03:35:08;;;;;;;69.00;31.03;;;0.70;67.60;;;0.39;52.62;95021.03;5003362;28;20449;-62
2021/12/24 03:37:36;;;;;;;64.17;30.27;;;0.70;67.60;;;0.39;52.67;95015.84;4998136;28;20482;-61
2021/12/24 03:40:04;;;;;;;61.10;29.20;;;0.70;67.60;;;0.41;52.79;95008.88;4993493;28;20485;-54
2021/12/24 03:42:36;;;;;;;65.50;28.83;;;0.70;67.60;;;0.39;53.52;95008.09;4993174;28;20544;-60
2021/12/24 03:45:18;;;;;;;65.10;28.80;;;0.70;68.00;;;0.37;52.52;95007.34;4998297;28;20967;-55
2021/12/24 03:47:52;;;;;;;59.40;26.37;;;0.70;67.70;;;0.37;53.17;94999.56;4997851;28;21354;-60
2021/12/24 03:50:19;;;;;;;43.80;22.50;;;0.70;67.60;;;0.39;52.61;94996.00;5002507;28;20477;-56
2021/12/24 03:53:03;;;;;;;62.30;26.20;;;0.70;67.60;;;0.39;53.06;94997.75;4999360;28;20488;-60
2021/12/24 03:55:30;;;;;;;51.60;25.63;;;0.70;67.50;;;0.39;52.59;94996.00;5001171;28;20975;-59
2021/12/24 03:57:58;;;;;;;65.57;25.80;;;0.70;67.60;;;0.42;53.65;94995.84;5005643;28;20469;-56
2021/12/24 04:00:27;;;;;;;56.23;25.90;;;0.70;67.70;;;0.44;53.36;94986.25;4997988;28;20805;-56
2021/12/24 04:02:55;;;;;;;51.03;26.10;;;0.80;67.70;;;0.46;53.11;94989.59;4999033;28;20479;-59
2021/12/24 04:05:22;;;;;;;54.00;26.40;;;0.80;67.70;;;0.46;53.68;94988.78;5005312;28;20537;-56
2021/12/24 04:07:49;;;;;;;61.07;26.10;;;0.80;67.90;;;0.44;53.15;94988.84;4995738;28;20473;-62
2021/12/24 04:10:25;;;;;;;56.70;24.40;;;0.80;67.70;;;0.44;52.49;94982.84;4992043;28;20520;-60
2021/12/24 04:12:52;;;;;;;47.27;22.70;;;0.80;67.70;;;0.44;52.99;94982.84;4998751;28;20484;-62
2021/12/24 04:15:21;;;;;;;35.43;20.73;;;0.80;67.70;;;0.45;52.89;94985.34;4999090;28;20468;-57
2021/12/24 04:17:49;;;;;;;43.10;20.80;;;0.80;67.70;;;0.45;52.93;94979.31;5000707;28;20479;-56
2021/12/24 04:25:46;;;;;;;41.40;21.33;;;0.80;67.30;;;0.45;53.01;94992.25;4999488;28;20516;-60
2021/12/24 04:28:13;;;;;;;38.70;20.10;;;0.80;67.50;;;0.42;53.03;94993.28;4999139;28;20529;-56
2021/12/24 04:30:46;;;;;;;41.07;20.20;;;0.80;67.70;;;0.42;52.25;94992.41;5001515;28;21045;-56
2021/12/24 04:33:20;;;;;;;53.13;23.27;;;0.70;67.50;;;0.41;52.49;94983.00;4995220;28;20477;-60
2021/12/24 04:35:58;;;;;;;43.63;22.27;;;0.70;67.60;;;0.38;52.89;94993.50;4993700;28;20451;-57
2021/12/24 04:38:35;;;;;;;42.07;22.00;;;0.70;67.40;;;0.35;53.50;94979.78;5001796;28;20997;-55
2021/12/24 04:52:10;;;;;;;46.73;20.57;;;0.60;68.20;;;0.22;53.02;94993.38;4999183;28;21022;-56
2021/12/24 05:03:00;;;;;;;40.10;20.73;;;0.60;69.00;;;0.24;53.90;94999.34;4999643;28;20624;-56
2021/12/24 05:05:38;;;;;;;51.70;21.17;;;0.60;68.80;;;0.23;53.87;94995.91;5002933;28;20830;-62
2021/12/24 05:08:22;;;;;;;36.60;20.33;;;0.60;69.10;;;0.26;53.68;94976.81;5003816;28;20457;-61
2021/12/24 05:10:51;;;;;;;40.33;21.30;;;0.60;69.30;;;0.27;54.23;94981.91;5001824;28;20485;-62
2021/12/24 05:13:19;;;;;;;46.23;22.60;;;0.60;69.70;;;0.28;53.51;94986.19;4999801;28;20836;-59
2021/12/24 05:15:50;;;;;;;63.23;30.77;;;0.60;69.10;;;0.30;54.05;94986.94;4999506;28;20465;-55
2021/12/24 05:18:48;;;;;;;64.50;34.83;;;0.60;69.30;;;0.30;53.11;94991.28;4997870;28;20987;-60
2021/12/24 05:24:12;;;;;;;55.70;30.87;;;0.60;69.20;;;0.29;53.56;94993.00;4989203;28;20565;-55
2021/12/24 05:26:39;;;;;;;41.20;21.30;;;0.70;69.50;;;0.28;54.00;94988.78;5007453;28;21033;-56
2021/12/24 05:29:07;;;;;;;49.00;23.07;;;0.60;69.40;;;0.25;54.14;94994.09;5003563;28;20987;-60
2021/12/24 05:31:34;;;;;;;54.37;23.63;;;0.60;69.40;;;0.22;53.71;94994.25;5001330;28;20473;-56
2021/12/24 05:34:03;;;;;;;42.17;22.33;;;0.60;69.40;;;0.18;53.92;94993.53;5004317;28;20457;-56
2021/12/24 05:36:30;;;;;;;40.17;21.67;;;0.60;69.80;;;0.13;54.28;94979.16;5001770;28;20474;-60
2021/12/24 05:38:57;;;;;;;51.03;22.67;;;0.50;69.90;;;0.11;54.55;94980.97;5007161;28;20446;-61
2021/12/24 05:41:25;;;;;;;49.13;22.80;;;0.50;70.20;;;0.08;54.26;94976.81;4998889;28;20479;-60
2021/12/24 05:43:52;;;;;;;48.70;23.40;;;0.50;70.60;;;0.06;54.95;94978.59;4997813;28;20454;-60
2021/12/24 05:46:19;;;;;;;47.73;22.07;;;0.40;71.10;;;0.04;54.64;94974.44;4998576;28;20469;-58
2021/12/24 05:48:47;;;;;;;46.33;21.33;;;0.40;70.60;;;0.02;54.99;94963.31;5006378;28;20979;-56
2021/12/24 05:51:16;;;;;;;44.13;20.30;;;0.40;71.10;;;0.02;54.87;94963.31;5004600;28;20489;-57
2021/12/24 05:53:43;;;;;;;46.60;21.10;;;0.40;71.00;;;0.04;54.53;94964.94;5003949;28;20982;-57
2021/12/24 05:56:10;;;;;;;50.17;21.60;;;0.40;71.20;;;0.05;55.22;94963.16;5003433;28;20474;-58
2021/12/24 05:58:38;;;;;;;42.07;20.77;;;0.40;71.50;;;0.03;55.13;94957.25;5001965;28;20995;-57
2021/12/24 06:01:05;;;;;;;49.20;20.73;;;0.40;71.50;;;0.02;54.84;94960.72;5003427;28;20473;-56
2021/12/24 06:03:33;;;;;;;42.30;18.80;;;0.40;71.10;;;0.02;55.07;94952.97;4996396;28;20450;-60
2021/12/24 06:06:00;;;;;;;41.90;19.70;;;0.40;71.50;;;0.01;54.73;94951.31;5001510;28;20497;-60
2021/12/24 06:08:29;;;;;;;52.57;21.37;;;0.40;71.50;;;0.04;54.66;94948.59;5003322;28;20539;-60
2021/12/24 06:10:56;;;;;;;49.80;20.70;;;0.40;71.50;;;0.06;55.18;94954.50;4993810;28;20501;-58
2021/12/24 06:13:25;;;;;;;40.73;20.10;;;0.40;71.70;;;0.12;55.32;94956.78;5003417;28;20482;-61
2021/12/24 06:15:53;;;;;;;38.90;20.43;;;0.40;71.90;;;0.18;55.36;94972.00;5004213;28;20486;-58
2021/12/24 06:18:24;;;;;;;45.43;21.13;;;0.50;72.10;;;0.25;55.28;94967.38;5000760;28;20982;-56
2021/12/24 06:20:51;;;;;;;38.20;18.67;;;0.60;71.90;;;0.39;54.63;94967.56;5006400;28;20524;-57
2021/12/24 06:23:21;;;;;;;34.13;20.57;;;0.70;71.80;;;0.61;54.65;94974.25;5001693;28;20455;-60
2021/12/24 06:25:49;;;;;;;117.20;43.47;;;0.90;71.40;;;0.91;55.29;94981.34;5002830;28;20568;-59
2021/12/24 06:28:17;;;;;;;99.77;45.70;;;1.20;71.80;;;1.18;53.95;94971.34;5002070;28;20839;-58
2021/12/24 06:30:44;;;;;;;87.23;43.67;;;1.40;70.50;;;1.40;53.64;94979.63;5000420;28;20492;-58
2021/12/24 06:33:11;;;;;;;96.70;47.03;;;1.70;70.20;;;1.55;53.38;94992.69;5004602;28;20528;-58
2021/12/24 06:35:39;;;;;;;111.77;45.97;;;1.80;68.70;;;1.58;52.42;94989.91;5007489;28;20469;-60
2021/12/24 06:38:06;;;;;;;92.47;42.63;;;1.90;68.80;;;1.56;52.14;94996.94;5007280;28;20454;-60
2021/12/24 06:40:34;;;;;;;110.40;42.93;;;1.90;68.70;;;1.55;52.97;94982.31;5004737;28;20469;-56
2021/12/24 06:43:03;;;;;;;77.83;35.17;;;1.90;68.80;;;1.56;55.08;94989.16;5000602;28;20870;-57
2021/12/24 06:45:30;;;;;;;63.30;30.40;;;1.80;71.30;;;1.50;53.54;95000.69;5000808;28;20448;-56
2021/12/24 06:47:59;;;;;;;56.13;30.20;;;1.80;68.70;;;1.37;53.00;94994.50;5006606;28;21025;-55
2021/12/24 06:50:26;;;;;;;54.70;29.23;;;1.70;68.90;;;1.30;53.49;94967.25;4998618;28;20499;-55
2021/12/24 06:52:54;;;;;;;78.00;37.37;;;1.60;69.10;;;1.24;53.18;94978.78;4998428;28;20474;-56
2021/12/24 06:55:21;;;;;;;86.10;37.07;;;1.60;69.40;;;1.21;53.32;94979.78;4997328;28;20458;-57
2021/12/24 06:57:48;;;;;;;73.20;35.70;;;1.50;70.00;;;1.22;54.03;94960.72;4993177;28;20524;-55
2021/12/24 07:00:20;;;;;;;68.47;34.33;;;1.60;70.30;;;1.34;54.40;94968.75;4999833;28;20462;-56
2021/12/24 07:02:48;;;;;;;63.33;32.30;;;1.60;70.50;;;1.47;53.38;94984.47;5001131;28;21037;-56
2021/12/24 07:05:15;;;;;;;62.10;32.70;;;1.80;70.00;;;1.52;53.44;94978.16;5001812;28;21079;-55
2021/12/24 07:07:44;;;;;;;53.27;28.27;;;1.80;69.90;;;1.58;53.48;94983.00;4999988;28;20485;-58
2021/12/24 07:10:11;;;;;;;63.80;25.77;;;1.90;70.40;;;1.66;53.58;94989.50;5001263;28;20490;-59
2021/12/24 07:12:38;;;;;;;56.43;25.83;;;2.00;70.60;;;1.70;53.48;94972.88;4994926;28;20490;-58
2021/12/24 07:15:07;;;;;;;53.97;23.90;;;2.00;70.10;;;1.68;54.15;94969.53;5003951;28;20461;-55
2021/12/24 07:17:36;;;;;;;46.83;23.77;;;2.00;70.00;;;1.64;53.77;94961.06;4996635;28;20558;-58
2021/12/24 07:20:04;;;;;;;53.80;25.50;;;2.00;69.80;;;1.60;54.01;94975.13;4996692;28;20460;-56
2021/12/24 07:22:31;;;;;;;50.10;23.47;;;1.90;69.70;;;1.56;53.65;94969.25;4996394;28;21100;-57
2021/12/24 07:24:58;;;;;;;48.70;22.97;;;1.90;70.20;;;1.55;54.03;94987.50;5001165;28;21030;-59
2021/12/24 07:27:25;;;;;;;40.97;23.67;;;1.90;70.40;;;1.56;54.18;94984.00;5001758;28;21009;-58
2021/12/24 07:29:53;;;;;;;50.50;25.10;;;1.90;70.70;;;1.58;53.98;94985.59;5003542;28;20473;-58
2021/12/24 07:32:20;;;;;;;58.10;23.87;;;1.80;70.90;;;1.60;54.15;94980.31;5002353;28;20480;-57
2021/12/24 07:34:49;;;;;;;45.07;22.63;;;1.90;71.30;;;1.61;53.97;94972.47;5003713;28;20995;-58
2021/12/24 07:37:16;;;;;;;44.40;22.67;;;1.90;70.60;;;1.60;53.20;94973.38;5001078;28;20591;-58
2021/12/24 07:39:43;;;;;;;44.20;22.07;;;1.90;70.40;;;1.61;53.59;94974.19;4999024;28;20535;-57
2021/12/24 07:42:11;;;;;;;40.93;22.63;;;1.90;71.00;;;1.66;54.00;94986.91;5005748;28;20480;-56
2021/12/24 07:44:38;;;;;;;38.00;21.87;;;1.90;70.60;;;1.66;54.02;94954.06;5000964;28;20576;-57
2021/12/24 07:47:14;;;;;;;51.23;21.80;;;1.90;70.70;;;1.72;53.66;94969.28;5004493;28;20485;-59
2021/12/24 07:49:44;;;;;;;44.67;21.10;;;1.90;70.50;;;1.77;54.14;94977.63;5006541;28;20469;-58
2021/12/24 07:52:13;;;;;;;37.87;19.90;;;2.00;70.80;;;1.87;53.80;94975.38;5003976;28;20489;-58
2021/12/24 07:54:43;;;;;;;34.77;19.43;;;2.10;71.50;;;2.00;54.04;94983.31;4999444;28;20970;-56
2021/12/24 07:57:12;;;;;;;54.23;23.43;;;2.20;72.00;;;2.12;53.40;94982.66;5001779;28;20472;-56
2021/12/24 07:59:40;;;;;;;40.87;19.93;;;2.30;70.40;;;2.21;53.21;94976.09;5002029;28;20838;-58
2021/12/24 08:02:10;;;;;;;46.87;22.30;;;2.40;70.80;;;2.30;54.32;94969.56;4997248;28;20485;-59
2021/12/24 08:04:38;;;;;;;44.13;20.23;;;2.50;70.70;;;2.38;52.86;94982.91;4997112;28;20510;-57
2021/12/24 08:07:06;;;;;;;46.60;20.77;;;2.60;69.50;;;2.48;53.45;94975.47;5001737;28;20509;-56
2021/12/24 08:09:37;;;;;;;42.53;21.40;;;2.70;69.80;;;2.58;53.59;94958.41;5001020;28;20549;-60
2021/12/24 08:12:06;;;;;;;35.50;18.87;;;2.80;69.90;;;2.66;52.30;94976.13;4998807;28;21018;-57
2021/12/24 08:14:33;;;;;;;43.13;21.27;;;2.90;69.50;;;2.71;52.55;94970.69;4998235;28;20493;-57
2021/12/24 08:17:00;;;;;;;59.43;19.73;;;2.90;69.10;;;2.80;52.67;94963.16;5003189;28;20471;-59
2021/12/24 08:19:29;;;;;;;44.83;20.50;;;3.00;69.30;;;3.00;52.41;94977.56;4999089;28;20454;-57
2021/12/24 08:21:56;;;;;;;40.43;22.27;;;3.10;69.10;;;3.33;52.29;94960.91;5004275;28;20469;-58
2021/12/24 08:24:24;;;;;;;39.97;20.80;;;3.40;69.30;;;3.92;51.85;94955.50;5005113;28;20528;-55
2021/12/24 08:26:52;;;;;;;43.57;21.23;;;3.90;69.10;;;4.45;50.34;94945.16;4996887;28;20482;-57
2021/12/24 08:29:21;;;;;;;42.73;20.60;;;4.30;67.20;;;4.78;50.36;94932.59;4997227;28;20524;-57
2021/12/24 08:31:49;;;;;;;45.87;20.20;;;4.70;66.80;;;5.26;49.84;94908.50;4994993;28;20490;-58
2021/12/24 08:34:18;;;;;;;48.87;19.43;;;5.20;66.50;;;5.71;48.92;94925.28;4997800;28;20707;-58
2021/12/24 08:36:46;;;;;;;41.40;19.83;;;5.60;65.00;;;6.17;47.82;94920.38;5000964;28;20478;-58
2021/12/24 08:39:13;;;;;;;40.57;20.20;;;6.10;63.20;;;6.68;47.40;94909.63;5003450;28;20477;-58
2021/12/24 08:41:40;;;;;;;44.23;24.40;;;6.50;62.00;;;7.19;44.94;94918.84;5004627;28;20540;-58
2021/12/24 08:44:09;;;;;;;34.93;19.13;;;7.00;59.30;;;7.65;45.35;94909.19;5004164;28;20446;-58
2021/12/24 08:46:37;;;;;;;37.23;20.70;;;7.50;59.40;;;8.04;43.32;94909.59;5004018;28;20584;-59
2021/12/24 08:49:05;;;;;;;33.50;19.20;;;7.90;57.30;;;8.37;43.21;94911.28;5005787;28;20556;-59
2021/12/24 08:51:32;;;;;;;42.37;22.47;;;8.20;56.00;;;8.69;43.98;94905.22;5005885;28;20494;-57
2021/12/24 08:54:00;;;;;;;62.03;23.60;;;8.50;56.70;;;8.95;43.46;94903.03;5002049;28;20600;-59
2021/12/24 08:56:27;;;;;;;46.90;23.70;;;8.80;56.30;;;9.21;42.52;94904.41;5003523;28;20528;-58
2021/12/24 08:58:54;;;;;;;48.23;24.57;;;9.00;54.90;;;9.40;41.63;94914.16;4995002;28;20450;-59
2021/12/24 09:01:23;;;;;;;59.60;24.97;;;9.20;54.10;;;9.55;42.40;94912.84;5004285;28;20993;-60
2021/12/24 09:03:50;;;;;;;43.80;24.70;;;9.30;53.80;;;9.68;41.92;94905.56;5002081;28;20460;-59
2021/12/24 09:06:17;;;;;;;41.73;23.87;;;9.50;54.00;;;9.79;40.67;94899.38;5002177;28;20527;-59
2021/12/24 09:08:45;;;;;;;41.20;23.20;;;9.60;52.30;;;9.89;40.62;94899.41;5001334;28;20675;-59
2021/12/24 09:11:12;;;;;;;55.70;26.03;;;9.70;52.40;;;10.12;40.80;94897.34;5006354;28;20516;-58
2021/12/24 09:13:39;;;;;;;47.77;24.23;;;9.90;52.00;;;10.36;38.60;94902.28;4999922;28;20458;-58
2021/12/24 09:16:07;;;;;;;47.03;25.67;;;10.10;49.40;;;10.54;40.38;94904.19;4995670;28;20482;-59
2021/12/24 09:18:37;;;;;;;51.20;27.87;;;10.20;51.20;;;10.70;40.05;94893.94;4999720;28;20454;-58
2021/12/24 09:21:13;;;;;;;49.80;26.23;;;10.40;50.70;;;10.91;39.69;94895.59;5001609;28;20509;-60
2021/12/24 09:23:42;;;;;;;53.17;25.27;;;10.60;50.20;;;11.08;38.98;94880.88;5005669;28;20532;-59
2021/12/24 09:26:09;;;;;;;53.30;26.03;;;10.80;49.30;;;11.30;39.86;94879.69;5001057;28;20473;-60
2021/12/24 09:28:37;;;;;;;41.20;23.27;;;11.00;50.10;;;11.66;39.03;94875.38;5002812;28;20481;-59
2021/12/24 09:31:04;;;;;;;43.67;23.67;;;11.20;49.70;;;11.98;38.23;94870.66;5002846;28;20493;-60
2021/12/24 09:33:31;;;;;;;49.80;24.73;;;11.50;49.00;;;12.17;38.42;94867.06;5002289;28;20910;-59
2021/12/24 09:36:00;;;;;;;41.07;23.57;;;11.70;48.90;;;12.34;37.73;94852.22;4999850;28;20474;-58
2021/12/24 09:38:27;;;;;;;36.30;20.67;;;12.00;48.00;;;12.59;38.21;94865.63;4994584;28;20462;-58
2021/12/24 09:40:55;;;;;;;53.60;21.30;;;12.20;48.20;;;12.93;37.42;94849.88;4997909;28;20485;-58
2021/12/24 09:43:24;;;;;;;49.57;22.63;;;12.50;48.00;;;13.35;37.00;94854.44;4995168;28;20454;-57
2021/12/24 09:45:52;;;;;;;48.53;21.07;;;12.80;47.30;;;13.74;35.78;94840.75;4999053;28;20976;-58
2021/12/24 09:48:19;;;;;;;52.33;22.93;;;13.20;45.50;;;14.05;33.45;94840.19;4998492;28;20450;-58
2021/12/24 09:50:47;;;;;;;43.87;24.47;;;13.50;42.80;;;14.31;35.30;94845.34;5004054;28;20517;-60
2021/12/24 09:53:15;;;;;;;39.97;22.17;;;13.80;44.90;;;14.56;35.11;94839.25;5002373;28;20447;-60
2021/12/24 09:55:43;;;;;;;37.50;22.93;;;14.00;44.20;;;14.83;34.79;94841.59;5000243;28;20446;-60
2021/12/24 09:58:10;;;;;;;40.47;23.07;;;14.30;44.20;;;15.12;34.04;94816.38;5002739;28;20453;-59
2021/12/24 10:00:37;;;;;;;43.57;23.70;;;14.50;43.40;;;15.33;33.92;94815.81;4997670;28;20548;-60
2021/12/24 10:03:05;;;;;;;39.10;22.40;;;14.70;43.20;;;15.68;34.28;94819.00;4996182;28;20509;-60
2021/12/24 10:05:36;;;;;;;43.80;22.93;;;15.00;43.20;;;16.10;33.69;94807.22;4992052;28;20447;-58
2021/12/24 10:08:09;;;;;;;48.20;22.87;;;15.40;43.00;;;16.53;33.08;94808.56;4996898;28;21537;-59
2021/12/24 10:10:41;;;;;;;36.50;21.47;;;15.80;43.30;;;16.96;32.96;94800.94;4993384;28;20442;-57
2021/12/24 10:13:38;;;;;;;52.30;23.77;;;16.30;42.60;;;17.37;31.60;94795.19;4997663;28;20586;-59
2021/12/24 10:16:07;;;;;;;41.13;23.10;;;16.70;41.30;;;17.66;30.40;94791.69;5002235;28;20477;-59
2021/12/24 10:18:39;;;;;;;51.17;22.53;;;17.00;38.10;;;17.69;30.67;94783.34;4999004;28;20454;-58
2021/12/24 10:21:11;;;;;;;56.80;22.93;;;17.10;39.70;;;17.80;30.78;94783.84;4998232;28;20489;-57
2021/12/24 10:23:51;;;;;;;42.23;23.40;;;17.20;39.10;;;17.88;30.60;94786.44;4999426;28;21481;-57
2021/12/24 10:26:24;;;;;;;40.27;23.90;;;17.40;39.10;;;17.97;30.87;94769.38;4996895;28;20509;-59
2021/12/24 10:28:53;;;;;;;38.77;23.50;;;17.40;39.10;;;18.17;30.67;94772.25;4997195;28;20447;-58
2021/12/24 10:31:22;;;;;;;36.60;22.30;;;17.50;38.60;;;18.42;30.29;94763.88;4996764;28;20881;-58
2021/12/24 10:34:13;;;;;;;35.57;21.07;;;17.70;38.20;;;19.05;28.49;94755.97;5000469;28;20450;-61
2021/12/24 10:37:09;;;;;;;46.20;22.23;;;18.00;37.90;;;19.85;28.48;94759.06;4994005;28;20994;-57
2021/12/24 10:39:46;;;;;;;35.10;19.80;;;18.70;38.10;;;20.60;27.44;94751.03;4993753;28;20512;-58
2021/12/24 10:42:18;;;;;;;39.53;20.60;;;19.40;36.60;;;21.19;27.27;94745.03;5003203;28;20477;-61
2021/12/24 10:44:47;;;;;;;32.63;18.30;;;20.10;35.70;;;21.71;27.35;94745.94;5004019;28;20516;-61
2021/12/24 10:47:18;;;;;;;6.53;3.53;;;20.60;35.90;;;22.41;27.30;94744.38;5002179;28;20465;-58
2021/12/24 10:50:00;;;;;;;20.57;3.27;;;21.30;36.10;;;23.11;25.63;94746.91;5000468;28;20434;-62
2021/12/24 10:52:58;;;;;;;80.03;5.20;;;22.00;35.20;;;23.45;25.95;94736.66;4997304;28;20485;-61
2021/12/24 10:55:27;;;;;;;2.27;2.00;;;22.40;33.60;;;23.36;25.36;94729.94;4994590;28;20518;-62
2021/12/24 10:57:57;;;;;;;6.90;2.33;;;22.50;33.30;;;23.37;25.22;94742.31;5011138;28;20481;-61
2021/12/24 11:00:26;;;;;;;8.93;2.10;;;22.50;32.40;;;23.46;25.22;94727.56;4997791;28;20447;-59
2021/12/24 11:02:55;;;;;;;7.10;2.03;;;22.50;32.50;;;23.69;24.47;94739.50;5001377;28;20466;-59
2021/12/24 11:05:33;;;;;;;2.47;2.27;;;22.70;32.40;;;23.78;23.32;94717.47;4996945;28;20462;-60
2021/12/24 11:08:02;;;;;;;3.30;2.20;;;22.90;32.20;;;23.85;24.63;94714.72;5001359;28;20449;-59
2021/12/24 11:10:30;;;;;;;8.37;2.50;;;23.10;31.60;;;23.66;23.86;94705.03;4998890;28;20961;-58
2021/12/24 11:13:07;;;;;;;7.30;2.27;;;23.10;30.50;;;23.45;24.54;94712.50;4994692;28;20848;-61
2021/12/24 11:15:35;;;;;;;2.30;2.10;;;23.00;31.10;;;23.41;24.78;94705.94;4993779;28;20460;-62
2021/12/24 11:18:05;;;;;;;12.53;2.30;;;22.90;31.10;;;23.24;24.14;94713.78;4991635;28;20455;-59
2021/12/24 11:20:32;;;;;;;3.50;2.00;;;22.80;31.00;;;22.71;24.34;94707.00;4992179;28;20522;-59
2021/12/24 11:23:06;;;;;;;1.83;1.70;;;22.80;30.90;;;22.10;25.03;94690.53;4993589;28;20455;-61
2021/12/24 11:25:36;;;;;;;2.90;2.47;;;22.60;31.10;;;21.70;25.47;94696.09;5002537;28;20439;-61
2021/12/24 11:28:05;;;;;;;4.60;2.80;;;22.30;31.70;;;21.29;26.01;94694.59;5006822;28;20453;-60
2021/12/24 11:30:34;;;;;;;2.20;1.70;;;21.90;31.90;;;20.91;26.40;94705.97;5006449;28;20450;-59
2021/12/24 11:33:01;;;;;;;2.30;2.10;;;21.40;32.40;;;20.53;26.01;94690.59;5006700;28;20921;-58
2021/12/24 11:35:29;;;;;;;3.10;1.90;;;21.00;32.00;;;20.11;27.29;94695.25;5006604;28;20608;-59
2021/12/24 11:37:57;;;;;;;3.00;2.10;;;20.60;32.60;;;19.78;27.02;94691.50;5004101;28;20813;-63
2021/12/24 11:40:25;;;;;;;2.63;2.43;;;20.20;33.30;;;19.48;27.69;94691.78;5002462;28;20520;-61